createdAt,value
2023-01-19T00:00:33.086Z,0.50
2023-01-19T00:02:59.476Z,0.47
2023-01-19T00:05:25.861Z,0.60
2023-01-19T00:07:52.216Z,0.60
2023-01-19T00:10:18.550Z,0.50
2023-01-19T00:12:44.978Z,0.63
2023-01-19T00:15:12.146Z,0.70
2023-01-19T00:17:38.558Z,0.57
2023-01-19T00:20:05.468Z,0.60
2023-01-19T00:22:32.921Z,0.60
2023-01-19T00:24:59.273Z,0.70
2023-01-19T00:27:25.894Z,0.70
2023-01-19T00:29:53.240Z,0.60
2023-01-19T00:32:19.604Z,0.80
2023-01-19T00:34:46.130Z,0.50
2023-01-19T00:37:12.578Z,0.85
2023-01-19T00:39:38.910Z,0.68
2023-01-19T00:42:05.339Z,0.95
2023-01-19T00:44:31.640Z,0.98
2023-01-19T00:46:57.929Z,0.60
2023-01-19T00:49:24.256Z,0.90
2023-01-19T00:51:50.591Z,0.88
2023-01-19T00:54:17.005Z,0.88
2023-01-19T00:56:43.672Z,1.17
2023-01-19T00:59:10.594Z,1.10
2023-01-19T01:01:45.406Z,0.60
2023-01-19T01:04:12.963Z,0.90
2023-01-19T01:06:39.641Z,0.60
2023-01-19T01:09:06.210Z,0.80
2023-01-19T01:11:32.496Z,1.10
2023-01-19T01:13:58.816Z,0.90
2023-01-19T01:16:25.347Z,0.98
2023-01-19T01:18:51.702Z,0.75
2023-01-19T01:21:18.120Z,0.60
2023-01-19T01:23:44.500Z,0.57
2023-01-19T01:26:10.915Z,0.60
2023-01-19T01:28:37.289Z,0.50
2023-01-19T01:31:03.770Z,0.63
2023-01-19T01:33:40.580Z,0.85
2023-01-19T01:36:08.142Z,0.60
2023-01-19T01:38:34.540Z,0.93
2023-01-19T01:41:00.901Z,0.57
2023-01-19T01:43:52.414Z,0.50
2023-01-19T01:46:18.791Z,0.50
2023-01-19T01:49:01.647Z,0.77
2023-01-19T01:51:27.979Z,0.80
2023-01-19T01:54:07.880Z,1.08
2023-01-19T01:56:37.547Z,0.82
2023-01-19T01:59:09.164Z,0.70
2023-01-19T02:01:36.687Z,0.77
2023-01-19T02:04:03.229Z,0.73
2023-01-19T02:06:29.731Z,0.75
2023-01-19T02:09:10.984Z,0.70
2023-01-19T02:11:37.552Z,0.95
2023-01-19T02:14:07.046Z,0.90
2023-01-19T02:16:36.176Z,0.90
2023-01-19T02:19:04.214Z,1.08
2023-01-19T02:21:38.184Z,1.13
2023-01-19T02:24:05.022Z,0.80
2023-01-19T02:26:36.657Z,1.00
2023-01-19T02:29:09.895Z,1.10
2023-01-19T02:31:38.726Z,1.10
2023-01-19T02:34:07.691Z,0.80
2023-01-19T02:36:55.876Z,0.70
2023-01-19T02:39:41.097Z,0.80
2023-01-19T02:42:15.437Z,0.73
2023-01-19T02:44:44.988Z,0.88
2023-01-19T02:47:12.936Z,0.63
2023-01-19T02:49:39.229Z,0.52
2023-01-19T02:52:06.072Z,0.60
2023-01-19T02:55:01.430Z,0.70
2023-01-19T02:57:55.931Z,0.50
2023-01-19T03:00:37.006Z,0.60
2023-01-19T03:03:45.111Z,0.95
2023-01-19T03:06:20.041Z,0.70
2023-01-19T03:09:12.024Z,0.70
2023-01-19T03:11:46.041Z,0.77
2023-01-19T03:14:16.696Z,0.68
2023-01-19T03:16:46.973Z,1.00
2023-01-19T03:19:19.506Z,0.67
2023-01-19T03:21:50.295Z,0.60
2023-01-19T03:24:20.704Z,0.80
2023-01-19T03:26:58.257Z,0.70
2023-01-19T03:29:30.056Z,1.05
2023-01-19T03:32:01.107Z,0.60
2023-01-19T03:34:28.392Z,0.90
2023-01-19T03:36:58.825Z,0.63
2023-01-19T03:39:27.275Z,0.68
2023-01-19T03:41:58.217Z,0.70
2023-01-19T03:44:27.643Z,0.80
2023-01-19T03:46:54.851Z,0.80
2023-01-19T03:49:21.438Z,1.08
2023-01-19T03:51:47.886Z,0.88
2023-01-19T03:54:14.231Z,1.00
2023-01-19T03:56:40.595Z,0.90
2023-01-19T03:59:07.183Z,1.10
2023-01-19T04:01:33.725Z,0.68
2023-01-19T04:04:00.256Z,0.65
2023-01-19T04:06:26.594Z,0.90
2023-01-19T04:08:52.951Z,0.50
2023-01-19T04:11:19.388Z,0.75
2023-01-19T04:13:45.801Z,0.75
2023-01-19T04:16:12.492Z,0.95
2023-01-19T04:18:40.409Z,0.70
2023-01-19T04:21:08.013Z,0.60
2023-01-19T04:23:34.729Z,0.73
2023-01-19T04:26:04.182Z,0.77
2023-01-19T04:28:31.390Z,0.70
2023-01-19T04:30:57.988Z,0.82
2023-01-19T04:33:24.786Z,0.60
2023-01-19T04:35:53.546Z,0.70
2023-01-19T04:38:21.167Z,0.82
2023-01-19T04:40:49.172Z,0.90
2023-01-19T04:43:15.670Z,1.08
2023-01-19T04:45:42.118Z,1.20
2023-01-19T04:48:08.471Z,0.50
2023-01-19T04:50:34.783Z,0.75
2023-01-19T04:53:01.570Z,0.90
2023-01-19T04:55:28.310Z,0.73
2023-01-19T04:57:54.943Z,0.50
2023-01-19T05:00:21.881Z,0.70
2023-01-19T05:02:48.327Z,0.90
2023-01-19T05:05:14.761Z,0.90
2023-01-19T05:07:42.686Z,0.90
2023-01-19T05:10:09.716Z,1.30
2023-01-19T05:12:36.079Z,0.90
2023-01-19T05:15:02.743Z,1.10
2023-01-19T05:17:29.267Z,1.13
2023-01-19T05:19:55.733Z,1.40
2023-01-19T05:22:22.267Z,1.30
2023-01-19T05:24:48.669Z,0.68
2023-01-19T05:27:15.148Z,1.40
2023-01-19T05:29:41.458Z,1.08
2023-01-19T05:32:07.990Z,1.08
2023-01-19T05:34:34.335Z,0.90
2023-01-19T05:37:00.729Z,0.95
2023-01-19T05:39:27.103Z,0.77
2023-01-19T05:41:53.520Z,0.88
2023-01-19T05:44:19.844Z,1.02
2023-01-19T05:46:46.221Z,1.00
2023-01-19T05:49:12.652Z,1.27
2023-01-19T05:51:39.099Z,1.27
2023-01-19T05:54:05.879Z,0.70
2023-01-19T05:56:32.405Z,1.08
2023-01-19T05:58:59.638Z,1.43
2023-01-19T06:01:26.853Z,1.10
2023-01-19T06:03:53.274Z,1.25
2023-01-19T06:06:19.756Z,0.98
2023-01-19T06:08:46.367Z,1.25
2023-01-19T06:11:12.900Z,1.00
2023-01-19T06:13:41.199Z,1.13
2023-01-19T06:16:08.495Z,0.95
2023-01-19T06:18:34.999Z,0.85
2023-01-19T06:21:08.749Z,1.50
2023-01-19T06:23:35.611Z,1.10
2023-01-19T06:26:02.475Z,1.38
2023-01-19T06:28:29.008Z,1.00
2023-01-19T06:30:56.295Z,0.70
2023-01-19T06:33:23.896Z,1.50
2023-01-19T06:35:50.913Z,0.87
2023-01-19T06:38:17.433Z,0.82
2023-01-19T06:40:44.636Z,1.13
2023-01-19T06:43:11.420Z,1.30
2023-01-19T06:45:37.878Z,0.70
2023-01-19T06:48:04.352Z,1.00
2023-01-19T06:50:30.729Z,0.85
2023-01-19T06:52:57.260Z,1.00
2023-01-19T06:55:23.719Z,1.40
2023-01-19T06:57:59.857Z,0.90
2023-01-19T07:00:26.759Z,1.20
2023-01-19T07:02:53.234Z,1.00
2023-01-19T07:05:19.625Z,0.75
2023-01-19T07:07:57.364Z,1.00
2023-01-19T07:10:24.302Z,1.35
2023-01-19T07:12:51.325Z,1.30
2023-01-19T07:15:20.080Z,1.33
2023-01-19T07:17:46.391Z,1.48
2023-01-19T07:20:13.739Z,1.08
2023-01-19T07:22:42.421Z,0.98
2023-01-19T07:25:09.347Z,1.00
2023-01-19T07:27:35.835Z,1.33
2023-01-19T07:30:02.157Z,1.35
2023-01-19T07:32:28.985Z,1.15
2023-01-19T07:34:55.399Z,1.63
2023-01-19T07:37:21.740Z,1.33
2023-01-19T07:39:48.053Z,1.20
2023-01-19T07:42:14.435Z,1.35
2023-01-19T07:44:40.875Z,1.25
2023-01-19T07:47:07.286Z,1.55
2023-01-19T07:49:33.662Z,0.80
2023-01-19T07:52:00.014Z,1.02
2023-01-19T07:54:26.332Z,1.08
2023-01-19T07:56:55.611Z,1.10
2023-01-19T07:59:21.996Z,1.00
2023-01-19T08:01:48.411Z,1.07
2023-01-19T08:04:14.906Z,1.10
2023-01-19T08:06:45.168Z,1.00
2023-01-19T08:09:11.776Z,1.20
2023-01-19T08:11:38.356Z,1.50
2023-01-19T08:14:06.956Z,1.17
2023-01-19T08:16:34.379Z,1.10
2023-01-19T08:19:00.722Z,1.02
2023-01-19T08:21:27.824Z,1.50
2023-01-19T08:23:55.672Z,1.38
2023-01-19T08:26:27.914Z,0.90
2023-01-19T08:28:55.140Z,1.25
2023-01-19T08:31:24.532Z,1.80
2023-01-19T08:33:51.162Z,1.80
2023-01-19T08:36:17.871Z,2.00
2023-01-19T08:38:45.794Z,1.10
2023-01-19T08:41:13.099Z,1.20
2023-01-19T08:43:39.731Z,1.60
2023-01-19T08:46:06.339Z,1.17
2023-01-19T08:48:32.948Z,1.20
2023-01-19T08:50:59.342Z,1.63
2023-01-19T08:53:25.788Z,1.77
2023-01-19T08:55:56.896Z,1.23
2023-01-19T08:58:23.917Z,1.23
2023-01-19T09:00:50.369Z,1.00
2023-01-19T09:03:16.896Z,1.77
2023-01-19T09:05:43.300Z,1.10
2023-01-19T09:08:11.795Z,1.30
2023-01-19T09:10:39.534Z,1.25
2023-01-19T09:13:08.073Z,1.73
2023-01-19T09:15:34.551Z,1.50
2023-01-19T09:18:02.241Z,1.23
2023-01-19T09:20:28.788Z,1.05
2023-01-19T09:22:58.439Z,1.17
2023-01-19T09:25:25.115Z,1.15
2023-01-19T09:27:51.488Z,0.97
2023-01-19T09:30:18.940Z,1.25
2023-01-19T09:32:45.860Z,1.10
2023-01-19T09:35:12.610Z,1.17
2023-01-19T09:37:39.587Z,1.50
2023-01-19T09:40:06.598Z,1.63
2023-01-19T09:42:44.633Z,1.38
2023-01-19T09:45:18.858Z,1.63
2023-01-19T09:47:47.560Z,1.10
2023-01-19T09:50:31.573Z,1.45
2023-01-19T09:53:04.976Z,1.17
2023-01-19T09:55:31.318Z,1.20
2023-01-19T09:57:58.227Z,1.55
2023-01-19T10:00:28.566Z,1.15
2023-01-19T10:03:12.476Z,1.38
2023-01-19T10:06:00.735Z,1.10
2023-01-19T10:08:32.251Z,1.13
2023-01-19T10:10:58.694Z,1.85
2023-01-19T10:13:29.575Z,1.75
2023-01-19T10:16:21.802Z,1.67
2023-01-19T10:18:49.509Z,1.00
2023-01-19T10:21:33.294Z,1.13
2023-01-19T10:24:14.510Z,1.10
2023-01-19T10:26:49.443Z,1.20
2023-01-19T10:29:28.069Z,1.30
2023-01-19T10:32:29.084Z,1.10
2023-01-19T10:34:55.884Z,0.80
2023-01-19T10:37:38.026Z,1.30
2023-01-19T10:40:10.291Z,0.90
2023-01-19T10:42:39.517Z,1.20
2023-01-19T10:45:26.971Z,0.70
2023-01-19T10:47:55.059Z,1.30
2023-01-19T10:50:26.857Z,1.23
2023-01-19T10:52:56.088Z,0.70
2023-01-19T10:55:38.401Z,1.15
2023-01-19T10:58:06.241Z,1.20
2023-01-19T11:00:43.000Z,1.10
2023-01-19T11:03:24.264Z,0.95
2023-01-19T11:05:51.336Z,0.82
2023-01-19T11:08:30.603Z,1.00
2023-01-19T11:11:03.085Z,1.00
2023-01-19T11:13:29.729Z,1.00
2023-01-19T11:16:07.338Z,1.55
2023-01-19T11:18:39.367Z,1.00
2023-01-19T11:21:14.938Z,1.00
2023-01-19T11:23:46.513Z,0.93
2023-01-19T11:26:15.528Z,0.80
2023-01-19T11:28:47.852Z,1.45
2023-01-19T11:31:14.237Z,0.90
2023-01-19T11:33:53.108Z,0.90
2023-01-19T11:36:20.601Z,0.80
2023-01-19T11:38:49.443Z,1.00
2023-01-19T11:41:36.918Z,1.10
2023-01-19T11:44:20.486Z,1.10
2023-01-19T11:46:52.340Z,1.10
2023-01-19T11:49:33.126Z,1.00
2023-01-19T11:52:09.990Z,0.90
2023-01-19T11:54:43.211Z,1.08
2023-01-19T11:57:15.834Z,1.23
2023-01-19T11:59:42.295Z,0.88
2023-01-19T12:02:25.363Z,0.70
2023-01-19T12:04:55.798Z,1.13
2023-01-19T12:07:28.328Z,0.90
2023-01-19T12:10:03.518Z,0.80
2023-01-19T12:12:32.317Z,2.28
2023-01-19T12:15:04.459Z,0.80
2023-01-19T12:17:40.059Z,1.00
2023-01-19T12:20:45.812Z,1.10
2023-01-19T12:23:25.269Z,0.98
2023-01-19T12:25:58.174Z,0.90
2023-01-19T12:28:31.097Z,1.13
2023-01-19T12:31:00.175Z,0.95
2023-01-19T12:33:26.475Z,1.20
2023-01-19T12:35:55.587Z,1.25
2023-01-19T12:38:48.381Z,0.80
2023-01-19T12:41:17.735Z,1.10
2023-01-19T12:43:44.116Z,0.90
2023-01-19T12:46:54.921Z,0.75
2023-01-19T12:49:24.209Z,0.90
2023-01-19T12:51:53.640Z,0.82
2023-01-19T12:54:31.747Z,0.77
2023-01-19T12:57:02.092Z,1.05
2023-01-19T12:59:31.001Z,1.10
2023-01-19T13:02:35.480Z,1.10
2023-01-19T13:05:18.617Z,0.82
2023-01-19T13:08:03.381Z,0.80
2023-01-19T13:11:00.751Z,0.93
2023-01-19T13:13:37.987Z,1.23
2023-01-19T13:16:19.695Z,1.30
2023-01-19T13:18:48.215Z,1.10
2023-01-19T13:21:37.873Z,0.73
2023-01-19T13:24:06.990Z,0.90
2023-01-19T13:26:33.226Z,1.20
2023-01-19T13:29:25.407Z,1.75
2023-01-19T13:31:52.473Z,1.00
2023-01-19T13:34:25.897Z,1.30
2023-01-19T13:36:54.354Z,1.25
2023-01-19T13:39:25.934Z,1.10
2023-01-19T13:41:55.710Z,0.80
2023-01-19T13:44:37.563Z,1.50
2023-01-19T13:47:05.057Z,1.00
2023-01-19T13:49:36.008Z,0.85
2023-01-19T13:52:16.608Z,1.00
2023-01-19T13:55:02.897Z,0.90
2023-01-19T13:57:45.660Z,1.13
2023-01-19T14:00:12.125Z,1.20
2023-01-19T14:02:40.381Z,0.90
2023-01-19T14:05:22.611Z,1.17
2023-01-19T14:07:59.861Z,1.30
2023-01-19T14:10:26.834Z,1.13
2023-01-19T14:13:13.157Z,1.00
2023-01-19T14:15:40.201Z,1.40
2023-01-19T14:18:16.399Z,1.58
2023-01-19T14:21:15.836Z,0.95
2023-01-19T14:23:46.413Z,1.30
2023-01-19T14:26:37.818Z,1.07
2023-01-19T14:29:10.251Z,1.25
2023-01-19T14:31:51.910Z,1.10
2023-01-19T14:34:34.937Z,0.98
2023-01-19T14:37:03.010Z,0.82
2023-01-19T14:39:34.764Z,1.00
2023-01-19T14:42:04.355Z,0.77
2023-01-19T14:44:34.910Z,1.17
2023-01-19T14:47:01.602Z,1.10
2023-01-19T14:49:37.550Z,1.20
2023-01-19T14:52:22.106Z,0.60
2023-01-19T14:54:49.299Z,0.90
2023-01-19T14:57:15.899Z,1.25
2023-01-19T14:59:42.433Z,1.38
2023-01-19T15:02:08.994Z,0.88
2023-01-19T15:04:35.494Z,0.87
2023-01-19T15:07:01.797Z,0.90
2023-01-19T15:09:28.255Z,1.23
2023-01-19T15:11:55.016Z,1.05
2023-01-19T15:14:21.824Z,0.95
2023-01-19T15:16:48.871Z,1.30
2023-01-19T15:19:16.856Z,0.93
2023-01-19T15:21:43.259Z,1.15
2023-01-19T15:24:09.908Z,1.05
2023-01-19T15:26:39.291Z,0.80
2023-01-19T15:29:25.732Z,0.80
2023-01-19T15:31:52.939Z,0.82
2023-01-19T15:34:19.449Z,1.00
2023-01-19T15:36:45.798Z,1.25
2023-01-19T15:39:12.152Z,1.10
2023-01-19T15:41:39.736Z,1.10
2023-01-19T15:44:07.239Z,0.90
2023-01-19T15:46:34.004Z,1.10
2023-01-19T15:49:00.377Z,1.50
2023-01-19T15:51:27.608Z,1.25
2023-01-19T15:53:54.715Z,0.97
2023-01-19T15:56:23.862Z,0.82
2023-01-19T15:58:51.275Z,1.25
2023-01-19T16:01:23.140Z,1.40
2023-01-19T16:03:50.288Z,1.15
2023-01-19T16:06:17.122Z,1.27
2023-01-19T16:08:43.555Z,1.27
2023-01-19T16:11:14.387Z,1.40
2023-01-19T16:13:40.833Z,1.20
2023-01-19T16:16:13.590Z,1.10
2023-01-19T16:18:40.129Z,1.30
2023-01-19T16:21:06.570Z,1.08
2023-01-19T16:23:33.021Z,1.10
2023-01-19T16:26:02.103Z,1.10
2023-01-19T16:28:28.396Z,1.23
2023-01-19T16:30:54.758Z,1.60
2023-01-19T16:33:21.160Z,1.27
2023-01-19T16:35:47.819Z,1.63
2023-01-19T16:38:14.500Z,1.55
2023-01-19T16:40:44.196Z,1.30
2023-01-19T16:43:10.954Z,1.67
2023-01-19T16:46:00.766Z,1.52
2023-01-19T16:48:28.142Z,1.42
2023-01-19T16:51:00.001Z,1.50
2023-01-19T16:53:27.328Z,1.70
2023-01-19T16:55:53.751Z,1.50
2023-01-19T16:58:20.172Z,1.48
2023-01-19T17:00:46.549Z,1.60
2023-01-19T17:03:13.230Z,1.60
2023-01-19T17:05:39.663Z,1.88
2023-01-19T17:08:06.027Z,1.50
2023-01-19T17:10:36.359Z,1.40
2023-01-19T17:13:02.693Z,1.70
2023-01-19T17:15:30.345Z,1.60
2023-01-19T17:17:56.678Z,1.83
2023-01-19T17:20:23.013Z,2.70
2023-01-19T17:22:49.310Z,2.42
2023-01-19T17:25:15.684Z,2.70
2023-01-19T17:27:42.269Z,2.00
2023-01-19T17:30:09.682Z,2.80
2023-01-19T17:32:36.235Z,2.30
2023-01-19T17:35:02.567Z,1.90
2023-01-19T17:37:28.946Z,2.55
2023-01-19T17:39:55.721Z,2.83
2023-01-19T17:42:22.056Z,3.17
2023-01-19T17:44:48.484Z,3.00
2023-01-19T17:47:14.904Z,3.13
2023-01-19T17:49:41.201Z,3.05
2023-01-19T17:52:07.739Z,2.30
2023-01-19T17:54:34.114Z,3.78
2023-01-19T17:57:00.438Z,3.33
2023-01-19T17:59:26.879Z,3.05
2023-01-19T18:01:54.322Z,3.42
2023-01-19T18:04:20.976Z,2.92
2023-01-19T18:06:47.318Z,2.65
2023-01-19T18:09:13.760Z,3.00
2023-01-19T18:11:40.094Z,2.70
2023-01-19T18:14:06.538Z,2.80
2023-01-19T18:16:32.991Z,2.70
2023-01-19T18:18:59.382Z,2.70
2023-01-19T18:21:26.810Z,2.67
2023-01-19T18:23:59.496Z,2.10
2023-01-19T18:26:25.795Z,2.40
2023-01-19T18:28:55.409Z,2.50
2023-01-19T18:31:22.123Z,2.22
2023-01-19T18:33:48.720Z,2.53
2023-01-19T18:36:16.301Z,2.55
2023-01-19T18:38:43.303Z,2.00
2023-01-19T18:41:15.740Z,2.67
2023-01-19T18:43:43.207Z,2.28
2023-01-19T18:46:10.588Z,2.50
2023-01-19T18:48:38.197Z,2.42
2023-01-19T18:51:13.553Z,2.10
2023-01-19T18:53:40.598Z,2.20
2023-01-19T18:56:07.928Z,1.70
2023-01-19T18:58:37.742Z,1.70
2023-01-19T19:01:16.254Z,1.83
2023-01-19T19:03:42.708Z,1.52
2023-01-19T19:06:09.102Z,1.75
2023-01-19T19:08:35.503Z,1.63
2023-01-19T19:11:01.815Z,2.20
2023-01-19T19:13:28.219Z,1.38
2023-01-19T19:15:56.177Z,1.50
2023-01-19T19:18:24.154Z,1.52
2023-01-19T19:20:55.021Z,1.50
2023-01-19T19:23:25.343Z,1.40
2023-01-19T19:25:52.127Z,1.85
2023-01-19T19:28:18.537Z,1.60
2023-01-19T19:30:44.882Z,1.60
2023-01-19T19:33:11.298Z,1.58
2023-01-19T19:35:37.620Z,1.43
2023-01-19T19:38:03.917Z,1.30
2023-01-19T19:40:30.209Z,1.02
2023-01-19T19:43:11.525Z,1.00
2023-01-19T19:45:37.943Z,1.00
2023-01-19T19:48:04.451Z,0.80
2023-01-19T19:50:31.301Z,0.98
2023-01-19T19:52:57.691Z,0.93
2023-01-19T19:55:24.121Z,1.30
2023-01-19T19:57:50.517Z,1.73
2023-01-19T20:00:17.380Z,1.60
2023-01-19T20:02:45.490Z,1.55
2023-01-19T20:05:11.860Z,1.45
2023-01-19T20:07:38.239Z,1.65
2023-01-19T20:10:05.472Z,1.38
2023-01-19T20:12:31.810Z,1.10
2023-01-19T20:14:58.187Z,1.10
2023-01-19T20:17:24.564Z,1.08
2023-01-19T20:19:51.085Z,1.00
2023-01-19T20:22:17.521Z,1.13
2023-01-19T20:24:44.128Z,0.80
2023-01-19T20:27:10.505Z,1.13
2023-01-19T20:29:36.899Z,1.33
2023-01-19T20:32:03.491Z,1.10
2023-01-19T20:34:33.307Z,1.35
2023-01-19T20:37:00.233Z,1.60
2023-01-19T20:39:26.578Z,1.23
2023-01-19T20:41:53.149Z,1.58
2023-01-19T20:44:23.027Z,1.60
2023-01-19T20:46:50.164Z,1.50
2023-01-19T20:49:16.554Z,1.87
2023-01-19T20:51:43.265Z,2.33
2023-01-19T20:54:11.416Z,1.30
2023-01-19T20:56:38.328Z,1.85
2023-01-19T20:59:04.712Z,2.70
2023-01-19T21:01:31.255Z,1.70
2023-01-19T21:03:57.751Z,1.50
2023-01-19T21:06:24.105Z,2.90
2023-01-19T21:08:50.625Z,1.50
2023-01-19T21:11:18.003Z,2.92
2023-01-19T21:13:44.440Z,2.70
2023-01-19T21:16:10.969Z,2.10
2023-01-19T21:18:37.415Z,2.53
2023-01-19T21:21:03.934Z,2.17
2023-01-19T21:23:31.262Z,2.50
2023-01-19T21:25:59.556Z,2.90
2023-01-19T21:28:27.749Z,1.95
2023-01-19T21:30:54.949Z,1.60
2023-01-19T21:33:21.756Z,1.30
2023-01-19T21:35:56.132Z,1.77
2023-01-19T21:38:24.626Z,1.73
2023-01-19T21:40:51.049Z,1.70
2023-01-19T21:43:17.438Z,1.60
2023-01-19T21:45:43.807Z,1.50
2023-01-19T21:48:10.536Z,1.90
2023-01-19T21:50:36.963Z,2.23
2023-01-19T21:53:04.079Z,2.00
2023-01-19T21:55:30.435Z,2.80
2023-01-19T21:57:56.774Z,2.20
2023-01-19T22:00:23.316Z,2.50
2023-01-19T22:03:03.085Z,3.00
2023-01-19T22:05:36.391Z,2.80
2023-01-19T22:08:04.049Z,3.10
2023-01-19T22:10:30.492Z,2.60
2023-01-19T22:12:56.922Z,3.17
2023-01-19T22:15:23.308Z,2.50
2023-01-19T22:17:49.625Z,2.42
2023-01-19T22:20:16.249Z,3.33
2023-01-19T22:22:42.652Z,3.47
2023-01-19T22:25:09.463Z,3.67
2023-01-19T22:27:35.763Z,3.60
2023-01-19T22:30:02.113Z,3.40
2023-01-19T22:32:28.431Z,3.97
2023-01-19T22:34:54.711Z,3.83
2023-01-19T22:37:21.108Z,4.90
2023-01-19T22:39:47.485Z,4.67
2023-01-19T22:42:13.836Z,5.18
2023-01-19T22:44:40.310Z,5.03
2023-01-19T22:47:06.596Z,4.97
2023-01-19T22:49:33.056Z,5.38
2023-01-19T22:51:59.459Z,5.23
2023-01-19T22:54:25.867Z,5.10
2023-01-19T22:56:55.044Z,5.03
2023-01-19T22:59:21.434Z,4.70
2023-01-19T23:01:49.146Z,4.28
2023-01-19T23:04:15.865Z,3.80
2023-01-19T23:06:42.931Z,4.50
2023-01-19T23:09:14.272Z,3.97
2023-01-19T23:11:43.133Z,4.07
2023-01-19T23:14:14.327Z,4.40
2023-01-19T23:16:41.433Z,3.60
2023-01-19T23:19:07.835Z,4.15
2023-01-19T23:21:34.244Z,4.20
2023-01-19T23:24:02.796Z,4.07
2023-01-19T23:26:30.162Z,4.43
2023-01-19T23:29:01.490Z,3.97
2023-01-19T23:31:33.046Z,3.70
2023-01-19T23:34:02.571Z,4.03
2023-01-19T23:36:31.525Z,3.60
2023-01-19T23:38:59.750Z,3.47
2023-01-19T23:41:27.392Z,4.00
2023-01-19T23:43:53.911Z,3.55
2023-01-19T23:46:21.398Z,3.78
2023-01-19T23:48:48.185Z,3.97
2023-01-19T23:51:18.453Z,3.85
2023-01-19T23:53:45.229Z,3.50
2023-01-19T23:56:15.619Z,4.15
2023-01-19T23:58:41.974Z,4.05
